createdAt,value
2017-09-01T00:00:59.653Z,14.78
2017-09-01T00:02:12.024Z,14.81
2017-09-01T00:03:24.662Z,14.81
2017-09-01T00:04:37.222Z,14.74
2017-09-01T00:05:49.513Z,14.78
2017-09-01T00:07:02.106Z,14.79
2017-09-01T00:08:14.681Z,14.78
2017-09-01T00:09:27.237Z,14.74
2017-09-01T00:10:39.847Z,14.78
2017-09-01T00:11:52.433Z,14.79
2017-09-01T00:13:05.009Z,14.77
2017-09-01T00:14:17.532Z,14.78
2017-09-01T00:15:30.155Z,14.73
2017-09-01T00:16:42.133Z,14.77
2017-09-01T00:17:54.803Z,14.77
2017-09-01T00:19:07.391Z,14.78
2017-09-01T00:20:19.941Z,14.79
2017-09-01T00:21:32.540Z,14.78
2017-09-01T00:22:45.183Z,14.74
2017-09-01T00:23:57.838Z,14.82
2017-09-01T00:25:09.792Z,14.79
2017-09-01T00:26:22.353Z,14.78
2017-09-01T00:27:34.619Z,14.7
2017-09-01T00:28:47.194Z,14.78
2017-09-01T00:29:59.555Z,14.73
2017-09-01T00:31:11.837Z,14.71
2017-09-01T00:32:23.789Z,14.61
2017-09-01T00:33:36.401Z,14.73
2017-09-01T00:34:48.999Z,14.7
2017-09-01T00:36:01.575Z,14.63
2017-09-01T00:37:14.201Z,14.66
2017-09-01T00:38:26.761Z,14.66
2017-09-01T00:39:39.380Z,14.68
2017-09-01T00:40:51.976Z,14.63
2017-09-01T00:42:04.583Z,14.67
2017-09-01T00:43:16.843Z,14.66
2017-09-01T00:44:29.380Z,14.66
2017-09-01T00:45:41.960Z,14.53
2017-09-01T00:46:54.247Z,14.62
2017-09-01T00:48:06.821Z,14.67
2017-09-01T00:49:19.420Z,14.56
2017-09-01T00:50:31.950Z,14.55
2017-09-01T00:51:44.256Z,14.55
2017-09-01T00:52:56.866Z,14.59
2017-09-01T00:54:09.089Z,14.61
2017-09-01T00:55:21.712Z,14.55
2017-09-01T00:56:34.256Z,14.61
2017-09-01T00:57:46.874Z,14.51
2017-09-01T00:58:59.446Z,14.61
2017-09-01T01:00:11.976Z,14.53
2017-09-01T01:01:24.568Z,14.59
2017-09-01T01:02:37.207Z,14.55
2017-09-01T01:03:49.819Z,14.52
2017-09-01T01:05:02.415Z,14.56
2017-09-01T01:06:15.046Z,14.58
2017-09-01T01:07:26.988Z,14.48
2017-09-01T01:08:39.268Z,14.43
2017-09-01T01:09:51.822Z,14.56
2017-09-01T01:11:04.451Z,14.38
2017-09-01T01:12:17.071Z,14.45
2017-09-01T01:13:29.310Z,14.44
2017-09-01T01:14:41.604Z,14.52
2017-09-01T01:15:54.164Z,14.45
2017-09-01T01:17:06.504Z,14.51
2017-09-01T01:18:19.324Z,14.48
2017-09-01T01:19:31.920Z,14.41
2017-09-01T01:20:44.465Z,14.45
2017-09-01T01:21:56.990Z,14.43
2017-09-01T01:23:09.557Z,14.45
2017-09-01T01:24:22.186Z,14.37
2017-09-01T01:25:34.790Z,14.36
2017-09-01T01:26:47.042Z,14.31
2017-09-01T01:27:59.641Z,14.25
2017-09-01T01:29:12.208Z,14.22
2017-09-01T01:30:24.784Z,14.2
2017-09-01T01:31:37.401Z,14.26
2017-09-01T01:32:49.683Z,14.23
2017-09-01T01:34:01.981Z,14.22
2017-09-01T01:35:14.324Z,14.25
2017-09-01T01:36:26.887Z,14.23
2017-09-01T01:37:39.453Z,14.12
2017-09-01T01:38:52.000Z,14.2
2017-09-01T01:40:04.630Z,14.2
2017-09-01T01:41:17.245Z,14.25
2017-09-01T01:42:29.869Z,14.16
2017-09-01T01:43:42.495Z,14.22
2017-09-01T01:44:55.036Z,14.23
2017-09-01T01:46:07.301Z,14.11
2017-09-01T01:47:19.847Z,14.15
2017-09-01T01:48:32.483Z,14.18
2017-09-01T01:49:44.428Z,14.07
2017-09-01T01:50:57.281Z,14.15
2017-09-01T01:52:09.528Z,14.11
2017-09-01T01:53:22.076Z,14.15
2017-09-01T01:54:34.669Z,14.04
2017-09-01T01:55:46.890Z,14.11
2017-09-01T01:56:59.413Z,14.07
2017-09-01T01:58:11.687Z,14.04
2017-09-01T01:59:23.918Z,14.12
2017-09-01T02:00:36.494Z,14.07
2017-09-01T02:01:49.110Z,14.03
2017-09-01T02:03:01.656Z,14.07
2017-09-01T02:04:14.272Z,14.01
2017-09-01T02:05:26.565Z,14.08
2017-09-01T02:06:39.153Z,14.05
2017-09-01T02:07:51.427Z,14.05
2017-09-01T02:09:03.716Z,14.07
2017-09-01T02:10:16.238Z,14.04
2017-09-01T02:11:28.221Z,14.03
2017-09-01T02:12:40.821Z,14.07
2017-09-01T02:13:53.104Z,14.07
2017-09-01T02:15:05.672Z,14.01
2017-09-01T02:16:18.189Z,13.98
2017-09-01T02:17:30.774Z,13.97
2017-09-01T02:18:43.073Z,13.93
2017-09-01T02:19:55.308Z,13.95
2017-09-01T02:21:07.961Z,13.95
2017-09-01T02:22:20.522Z,14.05
2017-09-01T02:23:33.063Z,13.97
2017-09-01T02:24:45.310Z,13.95
2017-09-01T02:25:57.909Z,13.97
2017-09-01T02:27:10.456Z,13.94
2017-09-01T02:28:23.072Z,13.91
2017-09-01T02:29:35.342Z,13.86
2017-09-01T02:30:47.581Z,13.87
2017-09-01T02:32:00.176Z,13.93
2017-09-01T02:33:12.430Z,13.91
2017-09-01T02:34:24.742Z,13.89
2017-09-01T02:35:37.257Z,13.89
2017-09-01T02:36:49.890Z,13.85
2017-09-01T02:38:02.215Z,13.85
2017-09-01T02:39:14.484Z,13.85
2017-09-01T02:40:27.115Z,13.79
2017-09-01T02:41:39.734Z,13.83
2017-09-01T02:42:52.355Z,13.75
2017-09-01T02:44:04.943Z,13.67
2017-09-01T02:45:17.487Z,13.62
2017-09-01T02:46:30.130Z,13.68
2017-09-01T02:47:42.768Z,13.62
2017-09-01T02:48:55.373Z,13.6
2017-09-01T02:50:07.355Z,13.57
2017-09-01T02:51:19.975Z,13.58
2017-09-01T02:52:32.310Z,13.58
2017-09-01T02:53:44.893Z,13.6
2017-09-01T02:54:57.450Z,13.57
2017-09-01T02:56:10.032Z,13.5
2017-09-01T02:57:22.325Z,13.49
2017-09-01T02:58:34.889Z,13.45
2017-09-01T02:59:47.442Z,13.39
2017-09-01T03:01:00.104Z,13.39
2017-09-01T03:02:12.655Z,13.31
2017-09-01T03:03:25.326Z,13.3
2017-09-01T03:04:37.891Z,13.31
2017-09-01T03:05:50.263Z,13.26
2017-09-01T03:07:02.893Z,13.23
2017-09-01T03:08:15.177Z,13.13
2017-09-01T03:09:27.437Z,13.21
2017-09-01T03:10:39.730Z,13.24
2017-09-01T03:11:52.271Z,13.26
2017-09-01T03:13:04.540Z,13.17
2017-09-01T03:14:17.161Z,13.09
2017-09-01T03:15:29.759Z,13.11
2017-09-01T03:16:42.362Z,13.13
2017-09-01T03:17:54.991Z,13.13
2017-09-01T03:19:07.531Z,13.13
2017-09-01T03:20:20.177Z,13.12
2017-09-01T03:21:32.780Z,13.13
2017-09-01T03:22:45.101Z,12.98
2017-09-01T03:23:57.705Z,13.02
2017-09-01T03:25:10.268Z,12.99
2017-09-01T03:26:22.863Z,13.05
2017-09-01T03:27:35.083Z,13.02
2017-09-01T03:28:47.421Z,13.05
2017-09-01T03:29:59.986Z,12.98
2017-09-01T03:31:12.269Z,12.94
2017-09-01T03:32:24.858Z,12.91
2017-09-01T03:33:37.472Z,13.02
2017-09-01T03:34:50.029Z,13.01
2017-09-01T03:36:02.355Z,13.02
2017-09-01T03:37:14.951Z,12.93
2017-09-01T03:38:27.511Z,12.98
2017-09-01T03:39:40.289Z,12.95
2017-09-01T03:40:52.866Z,13.01
2017-09-01T03:42:05.155Z,12.95
2017-09-01T03:43:17.740Z,13.03
2017-09-01T03:44:30.370Z,12.98
2017-09-01T03:45:42.993Z,12.95
2017-09-01T03:46:55.592Z,12.98
2017-09-01T03:48:07.819Z,12.98
2017-09-01T03:49:20.406Z,12.93
2017-09-01T03:50:32.986Z,12.9
2017-09-01T03:51:45.563Z,12.87
2017-09-01T03:52:57.852Z,12.88
2017-09-01T03:54:10.090Z,12.81
2017-09-01T03:55:22.685Z,12.87
2017-09-01T03:56:35.231Z,12.87
2017-09-01T03:57:47.501Z,12.8
2017-09-01T03:59:00.050Z,12.76
2017-09-01T04:00:12.640Z,12.83
2017-09-01T04:01:25.259Z,12.83
2017-09-01T04:02:37.910Z,12.83
2017-09-01T04:03:50.517Z,12.81
2017-09-01T04:05:03.098Z,12.75
2017-09-01T04:06:15.367Z,12.73
2017-09-01T04:07:27.989Z,12.76
2017-09-01T04:08:40.567Z,12.75
2017-09-01T04:09:53.113Z,12.72
2017-09-01T04:11:05.726Z,12.7
2017-09-01T04:12:18.347Z,12.88
2017-09-01T04:13:30.923Z,12.75
2017-09-01T04:14:43.198Z,12.68
2017-09-01T04:15:55.483Z,12.78
2017-09-01T04:17:07.765Z,12.86
2017-09-01T04:18:20.302Z,12.78
2017-09-01T04:19:32.959Z,12.72
2017-09-01T04:20:45.202Z,12.76
2017-09-01T04:21:57.467Z,12.81
2017-09-01T04:23:10.061Z,12.75
2017-09-01T04:24:22.659Z,12.81
2017-09-01T04:25:35.251Z,12.72
2017-09-01T04:26:47.843Z,12.76
2017-09-01T04:28:00.403Z,12.73
2017-09-01T04:29:13.038Z,12.76
2017-09-01T04:30:25.642Z,12.7
2017-09-01T04:31:38.234Z,12.73
2017-09-01T04:32:50.808Z,12.75
2017-09-01T04:34:03.417Z,12.69
2017-09-01T04:35:15.393Z,12.73
2017-09-01T04:36:28.017Z,12.69
2017-09-01T04:37:40.537Z,12.68
2017-09-01T04:38:52.807Z,12.63
2017-09-01T04:40:05.413Z,12.63
2017-09-01T04:41:17.741Z,12.68
2017-09-01T04:42:30.317Z,12.65
2017-09-01T04:43:42.876Z,12.69
2017-09-01T04:44:55.472Z,12.66
2017-09-01T04:46:07.701Z,12.66
2017-09-01T04:47:19.949Z,12.53
2017-09-01T04:48:32.602Z,12.5
2017-09-01T04:49:45.211Z,12.57
2017-09-01T04:50:57.773Z,12.58
2017-09-01T04:52:10.370Z,12.53
2017-09-01T04:53:22.622Z,12.53
2017-09-01T04:54:35.211Z,12.51
2017-09-01T04:55:47.801Z,12.54
2017-09-01T04:57:00.435Z,12.53
2017-09-01T04:58:12.974Z,12.5
2017-09-01T04:59:25.569Z,12.4
2017-09-01T05:00:38.146Z,12.4
2017-09-01T05:01:50.732Z,12.39
2017-09-01T05:03:03.015Z,12.55
2017-09-01T05:04:15.659Z,12.43
2017-09-01T05:05:28.178Z,12.44
2017-09-01T05:06:40.824Z,12.45
2017-09-01T05:07:53.394Z,12.51
2017-09-01T05:09:05.318Z,12.51
2017-09-01T05:10:17.958Z,12.54
2017-09-01T05:11:30.533Z,12.57
2017-09-01T05:12:42.829Z,12.65
2017-09-01T05:13:55.432Z,12.57
2017-09-01T05:15:08.019Z,12.68
2017-09-01T05:16:20.532Z,12.55
2017-09-01T05:17:32.488Z,12.65
2017-09-01T05:18:45.043Z,12.65
2017-09-01T05:19:57.660Z,12.68
2017-09-01T05:21:10.223Z,12.65
2017-09-01T05:22:22.517Z,12.7
2017-09-01T05:23:34.764Z,12.68
2017-09-01T05:24:47.338Z,12.65
2017-09-01T05:25:59.606Z,12.69
2017-09-01T05:27:12.230Z,12.73
2017-09-01T05:28:24.822Z,12.66
2017-09-01T05:29:37.120Z,12.78
2017-09-01T05:30:49.714Z,12.78
2017-09-01T05:32:02.291Z,12.7
2017-09-01T05:33:14.880Z,12.7
2017-09-01T05:34:27.436Z,12.8
2017-09-01T05:35:39.995Z,12.86
2017-09-01T05:36:52.234Z,12.86
2017-09-01T05:38:04.815Z,12.8
2017-09-01T05:39:17.100Z,12.87
2017-09-01T05:40:29.654Z,12.86
2017-09-01T05:41:41.929Z,12.88
2017-09-01T05:42:54.223Z,12.9
2017-09-01T05:44:06.172Z,12.99
2017-09-01T05:45:18.484Z,12.94
2017-09-01T05:46:31.049Z,12.94
2017-09-01T05:47:43.294Z,13.01
2017-09-01T05:48:55.557Z,13.03
2017-09-01T05:50:07.508Z,12.98
2017-09-01T05:51:20.065Z,13.02
2017-09-01T05:52:32.350Z,13.13
2017-09-01T05:53:44.957Z,13.17
2017-09-01T05:54:57.599Z,13.11
2017-09-01T05:56:10.154Z,13.21
2017-09-01T05:57:22.391Z,13.17
2017-09-01T05:58:34.992Z,13.26
2017-09-01T05:59:47.550Z,13.21
2017-09-01T06:01:00.140Z,13.28
2017-09-01T06:02:12.679Z,13.31
2017-09-01T06:03:24.633Z,13.28
2017-09-01T06:04:37.220Z,13.39
2017-09-01T06:05:49.141Z,13.31
2017-09-01T06:07:01.709Z,13.45
2017-09-01T06:08:14.306Z,13.58
2017-09-01T06:09:26.873Z,13.57
2017-09-01T06:10:39.474Z,13.57
2017-09-01T06:11:52.083Z,13.65
2017-09-01T06:13:04.371Z,13.83
2017-09-01T06:14:17.000Z,13.82
2017-09-01T06:15:29.578Z,13.85
2017-09-01T06:16:41.858Z,13.93
2017-09-01T06:17:54.460Z,13.95
2017-09-01T06:19:06.731Z,13.97
2017-09-01T06:20:19.293Z,14.08
2017-09-01T06:21:31.866Z,14.15
2017-09-01T06:22:44.709Z,14.2
2017-09-01T06:23:56.991Z,14.23
2017-09-01T06:25:09.541Z,14.28
2017-09-01T06:26:22.155Z,14.37
2017-09-01T06:27:34.726Z,14.34
2017-09-01T06:28:47.384Z,14.43
2017-09-01T06:29:59.380Z,14.43
2017-09-01T06:31:12.018Z,14.53
2017-09-01T06:32:24.266Z,14.53
2017-09-01T06:33:36.829Z,14.55
2017-09-01T06:34:49.474Z,14.62
2017-09-01T06:36:01.445Z,14.62
2017-09-01T06:37:13.754Z,14.67
2017-09-01T06:38:26.017Z,14.73
2017-09-01T06:39:37.690Z,14.85
2017-09-01T06:40:49.962Z,14.9
2017-09-01T06:42:02.592Z,14.87
2017-09-01T06:43:15.212Z,14.92
2017-09-01T06:44:27.564Z,15.05
2017-09-01T06:45:40.159Z,15.14
2017-09-01T06:46:52.182Z,15.23
2017-09-01T06:48:04.738Z,15.35
2017-09-01T06:49:17.010Z,15.48
2017-09-01T06:50:29.004Z,15.7
2017-09-01T06:51:41.638Z,15.91
2017-09-01T06:52:54.248Z,16.21
2017-09-01T06:54:06.544Z,16.32
2017-09-01T06:55:19.165Z,16.55
2017-09-01T06:56:31.131Z,16.73
2017-09-01T06:57:43.773Z,16.92
2017-09-01T06:58:56.348Z,17.1
2017-09-01T07:00:08.961Z,17.42
2017-09-01T07:01:21.213Z,17.53
2017-09-01T07:02:33.168Z,17.57
2017-09-01T07:03:45.545Z,17.73
2017-09-01T07:04:58.165Z,17.82
2017-09-01T07:06:11.029Z,17.94
2017-09-01T07:07:23.064Z,17.86
2017-09-01T07:08:35.662Z,17.86
2017-09-01T07:09:47.937Z,17.86
2017-09-01T07:11:00.237Z,17.78
2017-09-01T07:12:12.808Z,17.69
2017-09-01T07:13:25.103Z,17.66
2017-09-01T07:14:37.715Z,17.63
2017-09-01T07:15:50.266Z,17.54
2017-09-01T07:17:02.889Z,17.65
2017-09-01T07:18:15.402Z,17.46
2017-09-01T07:19:28.026Z,17.59
2017-09-01T07:20:40.327Z,17.49
2017-09-01T07:21:52.887Z,17.49
2017-09-01T07:23:05.444Z,17.41
2017-09-01T07:24:17.753Z,17.5
2017-09-01T07:25:30.016Z,17.53
2017-09-01T07:26:42.570Z,17.37
2017-09-01T07:27:54.770Z,17.47
2017-09-01T07:29:07.328Z,17.57
2017-09-01T07:30:19.929Z,17.5
2017-09-01T07:31:32.193Z,17.65
2017-09-01T07:32:44.839Z,17.78
2017-09-01T07:33:56.796Z,17.76
2017-09-01T07:35:09.391Z,17.78
2017-09-01T07:36:21.970Z,17.84
2017-09-01T07:37:34.293Z,17.8
2017-09-01T07:38:46.627Z,17.82
2017-09-01T07:39:58.906Z,17.82
2017-09-01T07:41:11.534Z,17.72
2017-09-01T07:42:23.794Z,17.71
2017-09-01T07:43:36.089Z,17.88
2017-09-01T07:44:48.304Z,17.94
2017-09-01T07:46:00.327Z,18.05
2017-09-01T07:47:12.948Z,18.12
2017-09-01T07:48:24.898Z,18.3
2017-09-01T07:49:37.186Z,18.53
2017-09-01T07:50:49.472Z,18.66
2017-09-01T07:52:02.089Z,18.88
2017-09-01T07:53:14.041Z,18.97
2017-09-01T07:54:26.329Z,18.92
2017-09-01T07:55:38.616Z,18.92
2017-09-01T07:56:51.246Z,19
2017-09-01T07:58:02.863Z,18.96
2017-09-01T07:59:15.504Z,18.97
2017-09-01T08:00:28.034Z,18.92
2017-09-01T08:01:40.361Z,18.74
2017-09-01T08:02:52.655Z,18.74
2017-09-01T08:04:04.589Z,18.76
2017-09-01T08:05:16.867Z,18.66
2017-09-01T08:06:29.167Z,18.49
2017-09-01T08:07:40.857Z,18.6
2017-09-01T08:08:53.474Z,18.6
2017-09-01T08:10:05.388Z,18.71
2017-09-01T08:11:17.657Z,18.74
2017-09-01T08:12:29.947Z,18.82
2017-09-01T08:13:42.467Z,18.81
2017-09-01T08:14:55.043Z,18.79
2017-09-01T08:16:07.668Z,18.81
2017-09-01T08:17:19.971Z,18.79
2017-09-01T08:18:32.250Z,18.83
2017-09-01T08:19:44.792Z,18.83
2017-09-01T08:20:56.428Z,18.86
2017-09-01T08:22:08.700Z,18.81
2017-09-01T08:23:21.351Z,18.97
2017-09-01T08:24:33.990Z,18.98
2017-09-01T08:25:46.510Z,19.07
2017-09-01T08:26:58.782Z,19.07
2017-09-01T08:28:11.340Z,19.09
2017-09-01T08:29:23.930Z,19.09
2017-09-01T08:30:36.269Z,19.23
2017-09-01T08:31:48.500Z,19.24
2017-09-01T08:33:01.131Z,19.19
2017-09-01T08:34:13.412Z,19.32
2017-09-01T08:35:25.421Z,19.29
2017-09-01T08:36:38.020Z,19.3
2017-09-01T08:37:50.268Z,19.22
2017-09-01T08:39:02.865Z,19.32
2017-09-01T08:40:15.403Z,19.41
2017-09-01T08:41:27.974Z,19.41
2017-09-01T08:42:40.644Z,19.44
2017-09-01T08:43:53.184Z,19.6
2017-09-01T08:45:05.754Z,19.63
2017-09-01T08:46:18.373Z,19.64
2017-09-01T08:47:30.631Z,19.57
2017-09-01T08:48:43.126Z,19.74
2017-09-01T08:49:55.677Z,19.7
2017-09-01T08:51:07.915Z,19.63
2017-09-01T08:52:20.198Z,19.67
2017-09-01T08:53:32.207Z,19.74
2017-09-01T08:54:44.455Z,19.64
2017-09-01T08:55:57.054Z,19.59
2017-09-01T08:57:09.332Z,19.62
2017-09-01T08:58:21.624Z,19.7
2017-09-01T08:59:34.225Z,19.75
2017-09-01T09:00:46.504Z,19.77
2017-09-01T09:01:59.203Z,19.77
2017-09-01T09:03:11.863Z,19.92
2017-09-01T09:04:23.841Z,19.79
2017-09-01T09:05:36.096Z,19.82
2017-09-01T09:06:48.025Z,19.97
2017-09-01T09:08:00.654Z,20.03
2017-09-01T09:09:13.274Z,20.03
2017-09-01T09:10:25.263Z,20.02
2017-09-01T09:11:37.823Z,20.02
2017-09-01T09:12:49.754Z,20.18
2017-09-01T09:14:02.324Z,20.17
2017-09-01T09:15:14.613Z,20.26
2017-09-01T09:16:26.876Z,20.22
2017-09-01T09:17:39.472Z,20.24
2017-09-01T09:18:51.091Z,20.17
2017-09-01T09:20:03.635Z,20.14
2017-09-01T09:21:15.273Z,20.26
2017-09-01T09:22:26.927Z,20.15
2017-09-01T09:23:39.276Z,20.19
2017-09-01T09:24:51.879Z,20.17
2017-09-01T09:26:04.505Z,20.26
2017-09-01T09:27:16.840Z,20.22
2017-09-01T09:28:29.086Z,20.32
2017-09-01T09:29:41.699Z,20.32
2017-09-01T09:30:54.264Z,20.56
2017-09-01T09:32:06.775Z,20.39
2017-09-01T09:33:19.391Z,20.29
2017-09-01T09:34:31.957Z,20.34
2017-09-01T09:35:44.480Z,20.4
2017-09-01T09:36:56.705Z,20.5
2017-09-01T09:38:08.401Z,20.7
2017-09-01T09:39:20.365Z,20.7
2017-09-01T09:40:32.004Z,20.73
2017-09-01T09:41:44.599Z,20.77
2017-09-01T09:42:56.838Z,20.85
2017-09-01T09:44:08.773Z,20.93
2017-09-01T09:45:21.036Z,21.1
2017-09-01T09:46:33.289Z,21.17
2017-09-01T09:47:45.296Z,21.28
2017-09-01T09:48:57.617Z,21.23
2017-09-01T09:50:09.951Z,21.32
2017-09-01T09:51:21.950Z,21.35
2017-09-01T09:52:33.945Z,21.43
2017-09-01T09:53:46.605Z,21.32
2017-09-01T09:54:59.184Z,21.38
2017-09-01T09:56:11.790Z,21.29
2017-09-01T09:57:23.694Z,21.29
2017-09-01T09:58:36.270Z,21.33
2017-09-01T09:59:48.785Z,21.26
2017-09-01T10:01:01.369Z,21.17
2017-09-01T10:02:13.361Z,21.07
2017-09-01T10:03:25.645Z,21.08
2017-09-01T10:04:37.616Z,21.22
2017-09-01T10:05:49.552Z,21.29
2017-09-01T10:07:01.791Z,21.35
2017-09-01T10:08:14.062Z,21.51
2017-09-01T10:09:25.974Z,21.62
2017-09-01T10:10:38.288Z,21.72
2017-09-01T10:11:50.586Z,21.91
2017-09-01T10:13:02.868Z,21.84
2017-09-01T10:14:15.144Z,21.78
2017-09-01T10:15:27.371Z,21.94
2017-09-01T10:16:39.086Z,22
2017-09-01T10:17:51.626Z,21.94
2017-09-01T10:19:03.848Z,21.92
2017-09-01T10:20:16.096Z,21.89
2017-09-01T10:21:28.870Z,21.94
2017-09-01T10:22:41.513Z,21.94
2017-09-01T10:23:53.778Z,22
2017-09-01T10:25:06.432Z,22.1
2017-09-01T10:26:18.670Z,22.06
2017-09-01T10:27:30.645Z,22.06
2017-09-01T10:28:42.988Z,22.08
2017-09-01T10:29:54.625Z,22.12
2017-09-01T10:31:06.635Z,22
2017-09-01T10:32:18.898Z,21.88
2017-09-01T10:33:31.232Z,21.54
2017-09-01T10:34:43.914Z,21.45
2017-09-01T10:35:55.568Z,21.4
2017-09-01T10:37:07.907Z,21.47
2017-09-01T10:38:20.190Z,21.54
2017-09-01T10:39:32.472Z,21.47
2017-09-01T10:40:45.047Z,21.5
2017-09-01T10:41:57.367Z,21.37
2017-09-01T10:43:08.972Z,21.35
2017-09-01T10:44:21.617Z,21.28
2017-09-01T10:45:33.642Z,21.19
2017-09-01T10:46:45.909Z,21.04
2017-09-01T10:47:58.249Z,21.17
2017-09-01T10:49:10.853Z,21.15
2017-09-01T10:50:23.133Z,21.22
2017-09-01T10:51:34.540Z,21.17
2017-09-01T10:52:47.099Z,21.15
2017-09-01T10:53:59.329Z,21.13
2017-09-01T10:55:11.968Z,21.03
2017-09-01T10:56:24.249Z,21.07
2017-09-01T10:57:35.958Z,21.04
2017-09-01T10:58:47.929Z,21.07
2017-09-01T10:59:59.905Z,20.89
2017-09-01T11:01:12.497Z,20.77
2017-09-01T11:02:25.147Z,20.75
2017-09-01T11:03:37.142Z,20.68
2017-09-01T11:04:49.681Z,20.63
2017-09-01T11:06:02.020Z,20.64
2017-09-01T11:07:14.273Z,20.66
2017-09-01T11:08:26.276Z,20.6
2017-09-01T11:09:38.864Z,20.59
2017-09-01T11:10:51.386Z,20.58
2017-09-01T11:12:03.952Z,20.58
2017-09-01T11:13:16.504Z,20.56
2017-09-01T11:14:28.861Z,20.49
2017-09-01T11:15:41.467Z,20.34
2017-09-01T11:16:53.772Z,20.49
2017-09-01T11:18:06.064Z,20.36
2017-09-01T11:19:18.379Z,20.39
2017-09-01T11:20:30.407Z,20.39
2017-09-01T11:21:42.814Z,20.39
2017-09-01T11:22:55.054Z,20.24
2017-09-01T11:24:07.588Z,20.21
2017-09-01T11:25:20.210Z,20.26
2017-09-01T11:26:32.809Z,20.14
2017-09-01T11:27:45.092Z,20.12
2017-09-01T11:28:57.045Z,20.03
2017-09-01T11:30:09.266Z,20
2017-09-01T11:31:21.818Z,20.02
2017-09-01T11:32:34.140Z,19.84
2017-09-01T11:33:46.706Z,19.78
2017-09-01T11:34:58.930Z,19.79
2017-09-01T11:36:11.572Z,19.75
2017-09-01T11:37:24.466Z,19.66
2017-09-01T11:38:37.053Z,19.66
2017-09-01T11:39:48.981Z,19.66
2017-09-01T11:41:01.243Z,19.6
2017-09-01T11:42:13.827Z,19.59
2017-09-01T11:43:26.145Z,19.63
2017-09-01T11:44:38.492Z,19.6
2017-09-01T11:45:50.809Z,19.56
2017-09-01T11:47:02.810Z,19.62
2017-09-01T11:48:15.432Z,19.6
2017-09-01T11:49:27.713Z,19.6
2017-09-01T11:50:40.020Z,19.53
2017-09-01T11:51:52.291Z,19.53
2017-09-01T11:53:04.925Z,19.6
2017-09-01T11:54:17.480Z,19.57
2017-09-01T11:55:29.749Z,19.55
2017-09-01T11:56:42.338Z,19.45
2017-09-01T11:57:54.282Z,19.39
2017-09-01T11:59:06.523Z,19.45
2017-09-01T12:00:19.175Z,19.47
2017-09-01T12:01:31.776Z,19.42
2017-09-01T12:02:44.080Z,19.39
2017-09-01T12:03:55.800Z,19.35
2017-09-01T12:05:08.315Z,19.48
2017-09-01T12:06:20.933Z,19.45
2017-09-01T12:07:33.581Z,19.38
2017-09-01T12:08:46.210Z,19.37
2017-09-01T12:09:58.197Z,19.38
2017-09-01T12:11:10.767Z,19.38
2017-09-01T12:12:23.015Z,19.41
2017-09-01T12:13:35.315Z,19.37
2017-09-01T12:14:47.902Z,19.3
2017-09-01T12:16:00.203Z,19.41
2017-09-01T12:17:12.866Z,19.35
2017-09-01T12:18:25.130Z,19.35
2017-09-01T12:19:37.715Z,19.44
2017-09-01T12:20:49.986Z,19.48
2017-09-01T12:22:02.607Z,19.47
2017-09-01T12:23:15.215Z,19.42
2017-09-01T12:24:27.186Z,19.49
2017-09-01T12:25:39.773Z,19.53
2017-09-01T12:26:52.339Z,19.44
2017-09-01T12:28:04.612Z,19.47
2017-09-01T12:29:16.880Z,19.42
2017-09-01T12:30:29.502Z,19.34
2017-09-01T12:31:41.811Z,19.42
2017-09-01T12:32:53.742Z,19.49
2017-09-01T12:34:06.384Z,19.45
2017-09-01T12:35:18.283Z,19.53
2017-09-01T12:36:30.849Z,19.34
2017-09-01T12:37:43.452Z,19.37
2017-09-01T12:38:56.078Z,19.32
2017-09-01T12:40:08.639Z,19.32
2017-09-01T12:41:21.251Z,19.3
2017-09-01T12:42:33.820Z,19.34
2017-09-01T12:43:45.824Z,19.39
2017-09-01T12:44:57.746Z,19.3
2017-09-01T12:46:10.342Z,19.41
2017-09-01T12:47:23.010Z,19.38
2017-09-01T12:48:35.342Z,19.44
2017-09-01T12:49:47.966Z,19.35
2017-09-01T12:51:00.235Z,19.37
2017-09-01T12:52:12.542Z,19.35
2017-09-01T12:53:24.829Z,19.34
2017-09-01T12:54:37.104Z,19.34
2017-09-01T12:55:49.360Z,19.41
2017-09-01T12:57:01.926Z,19.38
2017-09-01T12:58:14.512Z,19.35
2017-09-01T12:59:26.832Z,19.42
2017-09-01T13:00:39.491Z,19.37
2017-09-01T13:01:51.813Z,19.41
2017-09-01T13:03:04.414Z,19.39
2017-09-01T13:04:17.074Z,19.37
2017-09-01T13:05:29.082Z,19.37
2017-09-01T13:06:41.715Z,19.37
2017-09-01T13:07:53.991Z,19.3
2017-09-01T13:09:06.250Z,19.23
2017-09-01T13:10:18.857Z,19.32
2017-09-01T13:11:31.492Z,19.22
2017-09-01T13:12:44.071Z,19.22
2017-09-01T13:13:56.296Z,19.07
2017-09-01T13:15:07.987Z,19.05
2017-09-01T13:16:20.579Z,19.11
2017-09-01T13:17:32.253Z,18.98
2017-09-01T13:18:44.174Z,18.89
2017-09-01T13:19:56.432Z,18.86
2017-09-01T13:21:08.122Z,18.91
2017-09-01T13:22:20.738Z,18.86
2017-09-01T13:23:32.683Z,18.91
2017-09-01T13:24:44.343Z,18.82
2017-09-01T13:25:56.583Z,18.82
2017-09-01T13:27:08.838Z,18.81
2017-09-01T13:28:21.406Z,18.91
2017-09-01T13:29:33.393Z,18.88
2017-09-01T13:30:45.980Z,18.92
2017-09-01T13:31:58.237Z,18.89
2017-09-01T13:33:10.474Z,18.92
2017-09-01T13:34:22.478Z,18.97
2017-09-01T13:35:34.787Z,18.97
2017-09-01T13:36:47.435Z,18.97
2017-09-01T13:38:00.033Z,18.97
2017-09-01T13:39:12.677Z,18.96
2017-09-01T13:40:24.650Z,18.97
2017-09-01T13:41:36.564Z,19.09
2017-09-01T13:42:49.148Z,19.09
2017-09-01T13:44:01.732Z,19.11
2017-09-01T13:45:14.005Z,19.07
2017-09-01T13:46:25.986Z,19.05
2017-09-01T13:47:38.218Z,19.08
2017-09-01T13:48:50.457Z,19.16
2017-09-01T13:50:03.100Z,18.96
2017-09-01T13:51:15.684Z,19.09
2017-09-01T13:52:28.308Z,19.12
2017-09-01T13:53:40.850Z,19.05
2017-09-01T13:54:53.448Z,19.09
2017-09-01T13:56:06.045Z,19.16
2017-09-01T13:57:18.383Z,19.15
2017-09-01T13:58:30.960Z,19.19
2017-09-01T13:59:43.596Z,19.32
2017-09-01T14:00:55.558Z,19.26
2017-09-01T14:02:08.202Z,19.23
2017-09-01T14:03:20.538Z,19.32
2017-09-01T14:04:32.806Z,19.26
2017-09-01T14:05:45.396Z,19.27
2017-09-01T14:06:58.016Z,19.22
2017-09-01T14:08:10.651Z,19.24
2017-09-01T14:09:23.244Z,19.19
2017-09-01T14:10:35.787Z,19.19
2017-09-01T14:11:48.138Z,19.2
2017-09-01T14:13:00.381Z,19.07
2017-09-01T14:14:12.929Z,19.07
2017-09-01T14:15:24.845Z,19.07
2017-09-01T14:16:37.430Z,19
2017-09-01T14:17:49.488Z,18.96
2017-09-01T14:19:02.170Z,18.96
2017-09-01T14:20:14.744Z,18.97
2017-09-01T14:21:26.704Z,18.96
2017-09-01T14:22:39.017Z,18.92
2017-09-01T14:23:51.625Z,18.85
2017-09-01T14:25:03.935Z,18.91
2017-09-01T14:26:16.483Z,18.81
2017-09-01T14:27:28.816Z,18.81
2017-09-01T14:28:40.807Z,18.73
2017-09-01T14:29:53.419Z,18.76
2017-09-01T14:31:05.948Z,18.68
2017-09-01T14:32:18.219Z,18.6
2017-09-01T14:33:30.542Z,18.55
2017-09-01T14:34:43.105Z,18.48
2017-09-01T14:35:55.026Z,18.45
2017-09-01T14:37:07.649Z,18.41
2017-09-01T14:38:19.909Z,18.41
2017-09-01T14:39:32.510Z,18.36
2017-09-01T14:40:44.476Z,18.31
2017-09-01T14:41:56.441Z,18.24
2017-09-01T14:43:08.400Z,18.24
2017-09-01T14:44:21.015Z,18.19
2017-09-01T14:45:32.996Z,18.13
2017-09-01T14:46:45.292Z,18.19
2017-09-01T14:47:57.918Z,17.98
2017-09-01T14:49:10.560Z,18.02
2017-09-01T14:50:23.249Z,17.97
2017-09-01T14:51:35.888Z,17.94
2017-09-01T14:52:48.114Z,18.03
2017-09-01T14:54:00.368Z,18.06
2017-09-01T14:55:12.652Z,17.95
2017-09-01T14:56:24.950Z,17.93
2017-09-01T14:57:37.558Z,17.93
2017-09-01T14:58:49.538Z,17.97
2017-09-01T15:00:02.094Z,17.94
2017-09-01T15:01:14.027Z,17.87
2017-09-01T15:02:26.350Z,17.87
2017-09-01T15:03:38.293Z,17.84
2017-09-01T15:04:50.243Z,17.84
2017-09-01T15:06:02.821Z,17.82
2017-09-01T15:07:15.430Z,17.78
2017-09-01T15:08:28.038Z,17.73
2017-09-01T15:09:39.752Z,17.8
2017-09-01T15:10:52.311Z,17.78
2017-09-01T15:12:04.928Z,17.72
2017-09-01T15:13:17.185Z,17.79
2017-09-01T15:14:29.790Z,17.78
2017-09-01T15:15:42.352Z,17.8
2017-09-01T15:16:54.572Z,17.75
2017-09-01T15:18:07.092Z,17.8
2017-09-01T15:19:19.114Z,17.86
2017-09-01T15:20:31.388Z,17.78
2017-09-01T15:21:44.018Z,17.87
2017-09-01T15:22:56.626Z,17.76
2017-09-01T15:24:09.174Z,17.78
2017-09-01T15:25:21.852Z,17.79
2017-09-01T15:26:34.466Z,17.82
2017-09-01T15:27:46.660Z,17.79
2017-09-01T15:28:59.190Z,17.79
2017-09-01T15:30:11.448Z,17.79
2017-09-01T15:31:23.769Z,17.82
2017-09-01T15:32:36.101Z,17.8
2017-09-01T15:33:48.410Z,17.82
2017-09-01T15:35:01.005Z,17.87
2017-09-01T15:36:12.652Z,17.78